Layton City
, Layton
Last Weather Update:04/16/2012 10:00:00 AM
Date
ETo
ETc
Rain
Irrigation
Req
Temp
Max
Temp
Min
Temp
Avg
Avg RH
Avg Wind
Avg Solar
inches
inches
incehs
inches
F
F
F
%
%
watts/m2
03/01/2012 0.04" 0.00" 0.07" -0.06" 33.8° 22.6° 28.1° 86.6% 3.7 MPH 105.1w/m2
03/02/2012 0.06" 0.00" 0.03" -0.02" 34.0° 21.3° 27.3° 64.6% 4.2 MPH 172.3w/m2
03/03/2012 0.05" 0.00" 0.00" 0.00" 41.3° 27.0° 34.0° 59.9% 4.2 MPH 84.0w/m2
03/04/2012 0.09" 0.00" 0.00" 0.00" 53.9° 28.3° 41.1° 57.0% 2.3 MPH 205.3w/m2
03/05/2012 0.12" 0.00" 0.00" 0.00" 63.7° 30.3° 47.4° 46.9% 4.4 MPH 200.9w/m2
03/06/2012 0.07" 0.00" 0.00" 0.00" 53.5° 25.4° 43.2° 52.7% 8.8 MPH 60.2w/m2
03/07/2012 0.00" 0.00" 0.00" 0.00" 26.6° 25.3° 25.9° 90.7% 9.5 MPH 0.0w/m2
03/08/2012 0.00" 0.00" 0.00" 0.00" 32.4° 25.1° 28.4° 68.7% 6.5 MPH 0.0w/m2
03/09/2012 0.09" 0.00" 0.00" 0.00" 50.1° 25.7° 37.0° 59.4% 2.4 MPH 198.8w/m2
03/10/2012 0.10" 0.00" 0.00" 0.00" 58.7° 26.5° 42.0° 52.4% 2.3 MPH 215.1w/m2
03/11/2012 0.14" 0.00" 0.00" 0.00" 62.3° 33.3° 49.2° 40.3% 4.1 MPH 213.8w/m2
03/12/2012 0.15" 0.00" 0.00" 0.00" 64.4° 40.5° 53.2° 33.1% 5.5 MPH 240.4w/m2
03/13/2012 0.01" 0.00" 0.00" 0.00" 56.2° 53.5° 55.0° 26.7% 11.7 MPH 0.0w/m2
03/14/2012 0.12" 0.00" 0.00" 0.00" 59.6° 46.7° 54.6° 33.7% 5.5 MPH 101.5w/m2
03/15/2012 0.13" 0.00" 0.00" 0.00" 67.5° 42.5° 55.7° 41.1% 2.8 MPH 215.6w/m2
03/16/2012 0.12" 0.00" 0.00" 0.00" 62.9° 51.0° 57.7° 34.3% 7.0 MPH 87.7w/m2
03/17/2012 0.17" 0.00" 0.00" 0.00" 65.0° 48.7° 57.2° 37.2% 12.4 MPH 100.0w/m2
03/18/2012 0.06" 0.00" 0.26" -0.21" 51.3° 31.2° 40.4° 71.0% 9.5 MPH 75.7w/m2
03/19/2012 0.09" 0.00" 0.05" -0.04" 42.2° 31.0° 35.3° 61.9% 5.9 MPH 195.1w/m2
03/20/2012 0.00" 0.00" 0.00" 0.00" 33.1° 31.2° 32.2° 69.3% 2.5 MPH 0.0w/m2
03/21/2012 0.00" 0.00" 0.00" 0.00" 42.7° 30.1° 36.6° 64.2% 2.4 MPH 0.0w/m2
03/22/2012 0.16" 0.00" 0.00" 0.00" 70.1° 38.0° 53.8° 38.4% 3.3 MPH 226.1w/m2
03/23/2012 0.15" 0.00" 0.00" 0.00" 68.5° 53.7° 60.6° 32.3% 6.6 MPH 135.5w/m2
03/24/2012 0.17" 0.00" 0.00" 0.00" 71.9° 45.3° 59.0° 37.0% 4.4 MPH 224.3w/m2
03/25/2012 0.12" 0.00" 0.00" 0.00" 70.8° 49.2° 60.6° 32.5% 4.1 MPH 133.3w/m2
03/26/2012 0.10" 0.00" 0.10" -0.08" 55.6° 34.6° 46.7° 53.7% 6.8 MPH 175.0w/m2
03/27/2012 0.11" 0.00" 0.00" 0.00" 59.8° 35.1° 47.8° 47.3% 2.7 MPH 185.1w/m2
03/28/2012 0.12" 0.00" 0.00" 0.00" 62.5° 44.0° 53.1° 41.6% 4.6 MPH 161.6w/m2
03/29/2012 0.00" 0.00" 0.01" -0.01" 50.1° 44.6° 48.0° 71.8% 6.7 MPH 0.0w/m2
03/30/2012 0.14" 0.00" 0.06" -0.05" 69.7° 42.1° 55.8° 51.3% 2.9 MPH 207.4w/m2
03/31/2012 0.25" 0.00" 0.00" 0.00" 76.3° 51.7° 64.3° 34.5% 10.3 MPH 262.4w/m2
Totals: 2.93" 0.00" 0.58" -0.46" 76.3° 21.3° 46.2° 51.4% 5.5 MPH 134.9w/m2